sensor_id;sensor_type;location;lat;lon;timestamp;pressure;altitude;pressure_sealevel;temperature;humidity
65832;BME280;52593;42.648;23.332;2022-08-21T00:01:10;94031.19;;;18.26;100.00
65832;BME280;52593;42.648;23.332;2022-08-21T00:03:37;94033.16;;;18.31;100.00
65832;BME280;52593;42.648;23.332;2022-08-21T00:06:03;94026.09;;;18.30;100.00
65832;BME280;52593;42.648;23.332;2022-08-21T00:08:28;94023.16;;;18.31;100.00
65832;BME280;52593;42.648;23.332;2022-08-21T00:10:54;94030.38;;;18.26;100.00
65832;BME280;52593;42.648;23.332;2022-08-21T00:13:20;94030.47;;;18.31;100.00
65832;BME280;52593;42.648;23.332;2022-08-21T00:15:47;94020.19;;;18.33;100.00
65832;BME280;52593;42.648;23.332;2022-08-21T00:18:14;94006.56;;;18.28;100.00
65832;BME280;52593;42.648;23.332;2022-08-21T00:20:40;94018.19;;;18.11;100.00
65832;BME280;52593;42.648;23.332;2022-08-21T00:23:06;94009.66;;;18.03;100.00
65832;BME280;52593;42.648;23.332;2022-08-21T00:25:32;94007.78;;;18.03;100.00
65832;BME280;52593;42.648;23.332;2022-08-21T00:27:57;94014.97;;;17.97;100.00
65832;BME280;52593;42.648;23.332;2022-08-21T00:30:25;94015.56;;;17.99;100.00
65832;BME280;52593;42.648;23.332;2022-08-21T00:32:52;94012.44;;;17.91;100.00
65832;BME280;52593;42.648;23.332;2022-08-21T00:35:21;94007.25;;;17.89;100.00
65832;BME280;52593;42.648;23.332;2022-08-21T00:37:46;94008.03;;;18.02;100.00
65832;BME280;52593;42.648;23.332;2022-08-21T00:40:15;94010.81;;;18.07;100.00
65832;BME280;52593;42.648;23.332;2022-08-21T00:42:41;94007.81;;;18.20;100.00
65832;BME280;52593;42.648;23.332;2022-08-21T00:45:08;94012.25;;;18.26;100.00
65832;BME280;52593;42.648;23.332;2022-08-21T00:47:34;94013.53;;;18.24;100.00
65832;BME280;52593;42.648;23.332;2022-08-21T00:50:00;94020.03;;;18.23;100.00
65832;BME280;52593;42.648;23.332;2022-08-21T00:52:28;94016.34;;;18.29;100.00
65832;BME280;52593;42.648;23.332;2022-08-21T00:54:57;94020.19;;;18.33;100.00
65832;BME280;52593;42.648;23.332;2022-08-21T00:57:29;94014.47;;;18.29;100.00
65832;BME280;52593;42.648;23.332;2022-08-21T00:59:58;94005.53;;;18.29;100.00
65832;BME280;52593;42.648;23.332;2022-08-21T01:02:25;94004.94;;;18.27;100.00
65832;BME280;52593;42.648;23.332;2022-08-21T01:04:51;94006.34;;;18.29;100.00
65832;BME280;52593;42.648;23.332;2022-08-21T01:07:17;94007.56;;;18.39;100.00
65832;BME280;52593;42.648;23.332;2022-08-21T01:09:43;94000.84;;;18.41;100.00
65832;BME280;52593;42.648;23.332;2022-08-21T01:12:09;94002.66;;;18.35;100.00
65832;BME280;52593;42.648;23.332;2022-08-21T01:14:36;93994.59;;;18.41;100.00
65832;BME280;52593;42.648;23.332;2022-08-21T01:17:03;93987.44;;;18.34;100.00
65832;BME280;52593;42.648;23.332;2022-08-21T01:19:29;93992.63;;;18.36;100.00
65832;BME280;52593;42.648;23.332;2022-08-21T01:21:55;93989.09;;;18.35;98.95
65832;BME280;52593;42.648;23.332;2022-08-21T01:24:21;93986.06;;;18.32;98.73
65832;BME280;52593;42.648;23.332;2022-08-21T01:26:47;93983.44;;;18.20;98.05
65832;BME280;52593;42.648;23.332;2022-08-21T01:29:20;93987.31;;;18.24;97.69
65832;BME280;52593;42.648;23.332;2022-08-21T01:31:48;93985.84;;;18.33;97.05
65832;BME280;52593;42.648;23.332;2022-08-21T01:34:14;93986.16;;;18.37;97.33
65832;BME280;52593;42.648;23.332;2022-08-21T01:36:41;93986.06;;;18.32;97.72
65832;BME280;52593;42.648;23.332;2022-08-21T01:39:07;93993.59;;;18.30;97.62
65832;BME280;52593;42.648;23.332;2022-08-21T01:41:33;93983.25;;;18.27;97.59
65832;BME280;52593;42.648;23.332;2022-08-21T01:43:58;93990.38;;;18.16;97.70
65832;BME280;52593;42.648;23.332;2022-08-21T01:46:24;93991.22;;;18.16;97.75
65832;BME280;52593;42.648;23.332;2022-08-21T01:48:49;93995.06;;;18.21;97.26
65832;BME280;52593;42.648;23.332;2022-08-21T01:51:14;93983.91;;;18.17;96.95
65832;BME280;52593;42.648;23.332;2022-08-21T01:53:41;93984.97;;;18.16;97.28
65832;BME280;52593;42.648;23.332;2022-08-21T01:56:08;93990.16;;;18.17;97.41
65832;BME280;52593;42.648;23.332;2022-08-21T01:58:33;93992.53;;;18.14;97.23
65832;BME280;52593;42.648;23.332;2022-08-21T02:01:00;93991.63;;;18.08;97.08
65832;BME280;52593;42.648;23.332;2022-08-21T02:03:29;93993.03;;;18.11;98.11
65832;BME280;52593;42.648;23.332;2022-08-21T02:05:56;93991.81;;;18.18;98.70
65832;BME280;52593;42.648;23.332;2022-08-21T02:08:22;93991.81;;;18.18;98.41
65832;BME280;52593;42.648;23.332;2022-08-21T02:10:51;93994.19;;;18.32;100.00
65832;BME280;52593;42.648;23.332;2022-08-21T02:13:17;93998.72;;;18.43;99.66
65832;BME280;52593;42.648;23.332;2022-08-21T02:15:43;94001.72;;;18.30;100.00
65832;BME280;52593;42.648;23.332;2022-08-21T02:18:08;94003.31;;;18.26;100.00
65832;BME280;52593;42.648;23.332;2022-08-21T02:20:40;94008.03;;;18.18;100.00
65832;BME280;52593;42.648;23.332;2022-08-21T02:23:07;94004.41;;;18.13;100.00
65832;BME280;52593;42.648;23.332;2022-08-21T02:25:32;94010.69;;;18.13;100.00
65832;BME280;52593;42.648;23.332;2022-08-21T02:27:59;94010.81;;;18.07;100.00
65832;BME280;52593;42.648;23.332;2022-08-21T02:30:32;94014.97;;;17.97;100.00
65832;BME280;52593;42.648;23.332;2022-08-21T02:32:58;94014.75;;;18.16;100.00
65832;BME280;52593;42.648;23.332;2022-08-21T02:35:25;94011.47;;;18.14;100.00
65832;BME280;52593;42.648;23.332;2022-08-21T02:37:53;94017.97;;;18.13;100.00
65832;BME280;52593;42.648;23.332;2022-08-21T02:40:22;94010.00;;;18.06;100.00
65832;BME280;52593;42.648;23.332;2022-08-21T02:42:49;94007.06;;;18.25;100.00
65832;BME280;52593;42.648;23.332;2022-08-21T02:45:15;94010.25;;;18.22;100.00
65832;BME280;52593;42.648;23.332;2022-08-21T02:47:58;94011.81;;;18.17;100.00
65832;BME280;52593;42.648;23.332;2022-08-21T02:50:30;94006.81;;;18.26;100.00
65832;BME280;52593;42.648;23.332;2022-08-21T02:52:56;94013.47;;;18.35;99.21
65832;BME280;52593;42.648;23.332;2022-08-21T02:55:25;94007.56;;;18.39;99.44
65832;BME280;52593;42.648;23.332;2022-08-21T02:57:52;93998.44;;;18.28;100.00
65832;BME280;52593;42.648;23.332;2022-08-21T03:00:20;94002.56;;;18.30;100.00
65832;BME280;52593;42.648;23.332;2022-08-21T03:02:46;94013.66;;;18.29;100.00
65832;BME280;52593;42.648;23.332;2022-08-21T03:05:12;94018.19;;;18.11;100.00
65832;BME280;52593;42.648;23.332;2022-08-21T03:07:41;94017.16;;;18.12;100.00
65832;BME280;52593;42.648;23.332;2022-08-21T03:10:07;94015.69;;;18.22;98.72
65832;BME280;52593;42.648;23.332;2022-08-21T03:12:33;94010.84;;;18.24;98.22
65832;BME280;52593;42.648;23.332;2022-08-21T03:15:00;94007.81;;;18.20;98.41
65832;BME280;52593;42.648;23.332;2022-08-21T03:17:26;93999.50;;;18.27;98.11
65832;BME280;52593;42.648;23.332;2022-08-21T03:19:52;93995.81;;;18.33;97.31
65832;BME280;52593;42.648;23.332;2022-08-21T03:22:17;94002.56;;;18.30;97.26
65832;BME280;52593;42.648;23.332;2022-08-21T03:24:43;94015.72;;;18.10;96.29
65832;BME280;52593;42.648;23.332;2022-08-21T03:27:10;94012.19;;;17.92;96.94
65832;BME280;52593;42.648;23.332;2022-08-21T03:29:37;94002.28;;;17.86;96.54
65832;BME280;52593;42.648;23.332;2022-08-21T03:32:03;94009.97;;;17.89;96.24
65832;BME280;52593;42.648;23.332;2022-08-21T03:34:29;94009.72;;;17.91;97.41
65832;BME280;52593;42.648;23.332;2022-08-21T03:36:54;94004.31;;;17.91;99.26
65832;BME280;52593;42.648;23.332;2022-08-21T03:39:20;94006.59;;;17.99;100.00
65832;BME280;52593;42.648;23.332;2022-08-21T03:41:45;93999.13;;;17.89;100.00
65832;BME280;52593;42.648;23.332;2022-08-21T03:44:12;93998.91;;;17.91;100.00
65832;BME280;52593;42.648;23.332;2022-08-21T03:46:38;94001.59;;;17.91;100.00
65832;BME280;52593;42.648;23.332;2022-08-21T03:49:05;94003.91;;;17.99;100.00
65832;BME280;52593;42.648;23.332;2022-08-21T03:51:31;94003.28;;;18.09;99.96
65832;BME280;52593;42.648;23.332;2022-08-21T03:53:58;94006.81;;;18.09;98.43
65832;BME280;52593;42.648;23.332;2022-08-21T03:56:24;94017.72;;;18.14;98.21
65832;BME280;52593;42.648;23.332;2022-08-21T03:58:49;94020.91;;;18.11;98.13
65832;BME280;52593;42.648;23.332;2022-08-21T04:01:15;94022.81;;;18.11;98.22
65832;BME280;52593;42.648;23.332;2022-08-21T04:03:40;94022.47;;;18.07;98.98
65832;BME280;52593;42.648;23.332;2022-08-21T04:06:06;94028.09;;;17.89;99.66
65832;BME280;52593;42.648;23.332;2022-08-21T04:08:32;94029.22;;;17.93;98.00
65832;BME280;52593;42.648;23.332;2022-08-21T04:10:59;94033.34;;;17.83;97.69
65832;BME280;52593;42.648;23.332;2022-08-21T04:13:25;94032.47;;;17.78;98.41
65832;BME280;52593;42.648;23.332;2022-08-21T04:15:51;94017.56;;;17.63;99.68
65832;BME280;52593;42.648;23.332;2022-08-21T04:18:17;94025.91;;;17.62;100.00
65832;BME280;52593;42.648;23.332;2022-08-21T04:20:44;94024.22;;;17.73;100.00
65832;BME280;52593;42.648;23.332;2022-08-21T04:23:11;94031.03;;;17.75;99.68
65832;BME280;52593;42.648;23.332;2022-08-21T04:25:37;94024.91;;;17.80;99.38
65832;BME280;52593;42.648;23.332;2022-08-21T04:28:03;94018.94;;;17.78;99.78
65832;BME280;52593;42.648;23.332;2022-08-21T04:30:29;94022.94;;;17.75;100.00
65832;BME280;52593;42.648;23.332;2022-08-21T04:32:56;94019.13;;;17.76;100.00
65832;BME280;52593;42.648;23.332;2022-08-21T04:35:22;94023.63;;;17.82;100.00
65832;BME280;52593;42.648;23.332;2022-08-21T04:37:49;94023.50;;;17.77;100.00
65832;BME280;52593;42.648;23.332;2022-08-21T04:40:15;94015.19;;;17.67;100.00
65832;BME280;52593;42.648;23.332;2022-08-21T04:42:45;94020.94;;;17.71;100.00
65832;BME280;52593;42.648;23.332;2022-08-21T04:45:31;94015.53;;;17.71;100.00
65832;BME280;52593;42.648;23.332;2022-08-21T04:47:58;94011.09;;;17.64;100.00
65832;BME280;52593;42.648;23.332;2022-08-21T04:50:28;94020.72;;;17.72;100.00
65832;BME280;52593;42.648;23.332;2022-08-21T04:52:55;94019.81;;;17.83;100.00
65832;BME280;52593;42.648;23.332;2022-08-21T04:55:21;94020.78;;;17.77;100.00
65832;BME280;52593;42.648;23.332;2022-08-21T04:57:48;94015.00;;;17.86;99.42
65832;BME280;52593;42.648;23.332;2022-08-21T05:00:19;94019.38;;;17.75;100.00
65832;BME280;52593;42.648;23.332;2022-08-21T05:02:45;94016.63;;;17.87;100.00
65832;BME280;52593;42.648;23.332;2022-08-21T05:05:13;94010.09;;;17.82;99.74
65832;BME280;52593;42.648;23.332;2022-08-21T05:07:38;94016.06;;;17.85;100.00
65832;BME280;52593;42.648;23.332;2022-08-21T05:10:05;94022.75;;;17.94;99.76
65832;BME280;52593;42.648;23.332;2022-08-21T05:12:33;94027.94;;;17.95;98.12
65832;BME280;52593;42.648;23.332;2022-08-21T05:14:59;94021.22;;;17.98;97.53
65832;BME280;52593;42.648;23.332;2022-08-21T05:17:25;94022.13;;;18.04;97.60
65832;BME280;52593;42.648;23.332;2022-08-21T05:19:51;94009.34;;;18.16;95.23
65832;BME280;52593;42.648;23.332;2022-08-21T05:22:24;94016.09;;;18.13;94.61
65832;BME280;52593;42.648;23.332;2022-08-21T05:24:50;94026.25;;;18.06;96.03
65832;BME280;52593;42.648;23.332;2022-08-21T05:27:15;94030.75;;;18.17;96.15
65832;BME280;52593;42.648;23.332;2022-08-21T05:29:41;94025.78;;;18.26;94.17
65832;BME280;52593;42.648;23.332;2022-08-21T05:32:11;94023.06;;;18.26;94.06
65832;BME280;52593;42.648;23.332;2022-08-21T05:34:37;94013.16;;;18.32;94.35
65832;BME280;52593;42.648;23.332;2022-08-21T05:37:02;94012.84;;;18.45;93.07
65832;BME280;52593;42.648;23.332;2022-08-21T05:39:28;94016.19;;;18.52;93.72
65832;BME280;52593;42.648;23.332;2022-08-21T05:41:53;94010.13;;;18.62;95.96
65832;BME280;52593;42.648;23.332;2022-08-21T05:44:19;94005.59;;;18.68;96.00
65832;BME280;52593;42.648;23.332;2022-08-21T05:46:44;94009.72;;;18.87;93.37
65832;BME280;52593;42.648;23.332;2022-08-21T05:49:10;94006.06;;;18.82;92.20
65832;BME280;52593;42.648;23.332;2022-08-21T05:51:36;94000.66;;;18.99;92.10
65832;BME280;52593;42.648;23.332;2022-08-21T05:54:02;94002.13;;;19.06;92.38
65832;BME280;52593;42.648;23.332;2022-08-21T05:56:28;94007.53;;;19.06;91.73
65832;BME280;52593;42.648;23.332;2022-08-21T05:58:53;94007.41;;;18.96;92.06
65832;BME280;52593;42.648;23.332;2022-08-21T06:01:18;94008.53;;;19.00;92.28
65832;BME280;52593;42.648;23.332;2022-08-21T06:03:44;94014.22;;;18.82;92.34
65832;BME280;52593;42.648;23.332;2022-08-21T06:06:09;94012.91;;;18.84;91.39
65832;BME280;52593;42.648;23.332;2022-08-21T06:08:35;94007.41;;;18.79;92.12
65832;BME280;52593;42.648;23.332;2022-08-21T06:11:02;94002.00;;;18.79;93.01
65832;BME280;52593;42.648;23.332;2022-08-21T06:13:28;94007.66;;;18.78;92.61
65832;BME280;52593;42.648;23.332;2022-08-21T06:16:11;94018.09;;;18.69;93.05
65832;BME280;52593;42.648;23.332;2022-08-21T06:18:38;94009.03;;;18.80;93.76
65832;BME280;52593;42.648;23.332;2022-08-21T06:21:04;94006.34;;;18.63;93.06
65832;BME280;52593;42.648;23.332;2022-08-21T06:23:30;94007.19;;;18.64;94.42
65832;BME280;52593;42.648;23.332;2022-08-21T06:25:56;93995.00;;;18.83;92.98
65832;BME280;52593;42.648;23.332;2022-08-21T06:28:21;94005.53;;;18.97;90.85
65832;BME280;52593;42.648;23.332;2022-08-21T06:30:46;94008.03;;;19.03;90.33
65832;BME280;52593;42.648;23.332;2022-08-21T06:33:12;94009.78;;;19.10;92.02
65832;BME280;52593;42.648;23.332;2022-08-21T06:35:37;94010.16;;;19.18;89.80
65832;BME280;52593;42.648;23.332;2022-08-21T06:38:03;94010.75;;;19.20;88.13
65832;BME280;52593;42.648;23.332;2022-08-21T06:40:29;94020.09;;;19.30;88.39
65832;BME280;52593;42.648;23.332;2022-08-21T06:42:55;94011.06;;;19.24;89.17
65832;BME280;52593;42.648;23.332;2022-08-21T06:45:21;94008.41;;;19.29;88.59
65832;BME280;52593;42.648;23.332;2022-08-21T06:47:47;94019.66;;;19.38;88.11
65832;BME280;52593;42.648;23.332;2022-08-21T06:50:12;94010.50;;;19.44;87.05
65832;BME280;52593;42.648;23.332;2022-08-21T06:52:38;94011.97;;;19.30;85.82
65832;BME280;52593;42.648;23.332;2022-08-21T06:55:06;94015.47;;;19.30;86.87
65832;BME280;52593;42.648;23.332;2022-08-21T06:57:32;94023.41;;;19.37;87.21
65832;BME280;52593;42.648;23.332;2022-08-21T06:59:57;94029.28;;;19.51;87.68
65832;BME280;52593;42.648;23.332;2022-08-21T07:02:22;94025.19;;;19.70;88.18
65832;BME280;52593;42.648;23.332;2022-08-21T07:04:48;94028.88;;;19.81;84.33
65832;BME280;52593;42.648;23.332;2022-08-21T07:07:13;94023.63;;;19.74;83.80
65832;BME280;52593;42.648;23.332;2022-08-21T07:09:40;94020.59;;;19.71;85.84
65832;BME280;52593;42.648;23.332;2022-08-21T07:12:05;94021.16;;;19.73;85.62
65832;BME280;52593;42.648;23.332;2022-08-21T07:14:31;94028.75;;;19.93;85.24
65832;BME280;52593;42.648;23.332;2022-08-21T07:16:56;94027.66;;;19.72;83.11
65832;BME280;52593;42.648;23.332;2022-08-21T07:19:22;94031.59;;;19.59;83.06
65832;BME280;52593;42.648;23.332;2022-08-21T07:21:47;94029.69;;;19.59;84.33
65832;BME280;52593;42.648;23.332;2022-08-21T07:24:13;94025.41;;;19.64;85.44
65832;BME280;52593;42.648;23.332;2022-08-21T07:26:39;94026.84;;;19.71;83.43
65832;BME280;52593;42.648;23.332;2022-08-21T07:29:04;94024.38;;;19.70;83.33
65832;BME280;52593;42.648;23.332;2022-08-21T07:31:30;94010.75;;;19.65;81.95
65832;BME280;52593;42.648;23.332;2022-08-21T07:33:56;94008.78;;;19.60;82.87
65832;BME280;52593;42.648;23.332;2022-08-21T07:36:22;94000.66;;;19.60;83.91
65832;BME280;52593;42.648;23.332;2022-08-21T07:38:48;94001.84;;;19.69;80.77
65832;BME280;52593;42.648;23.332;2022-08-21T07:41:20;94003.91;;;19.79;81.43
65832;BME280;52593;42.648;23.332;2022-08-21T07:43:46;93995.81;;;19.84;79.45
65832;BME280;52593;42.648;23.332;2022-08-21T07:46:12;93998.69;;;20.00;79.58
65832;BME280;52593;42.648;23.332;2022-08-21T07:48:37;93990.38;;;20.11;78.67
65832;BME280;52593;42.648;23.332;2022-08-21T07:51:07;93984.53;;;20.25;76.57
65832;BME280;52593;42.648;23.332;2022-08-21T07:53:33;93989.25;;;20.35;76.94
65832;BME280;52593;42.648;23.332;2022-08-21T07:55:58;93994.72;;;20.40;74.83
65832;BME280;52593;42.648;23.332;2022-08-21T07:58:24;93997.22;;;20.46;76.14
65832;BME280;52593;42.648;23.332;2022-08-21T08:00:50;93992.72;;;20.62;76.12
65832;BME280;52593;42.648;23.332;2022-08-21T08:03:15;93987.50;;;20.83;74.85
65832;BME280;52593;42.648;23.332;2022-08-21T08:05:40;93991.31;;;20.87;76.33
65832;BME280;52593;42.648;23.332;2022-08-21T08:08:06;93999.63;;;20.70;77.65
65832;BME280;52593;42.648;23.332;2022-08-21T08:10:32;93999.63;;;20.70;77.11
65832;BME280;52593;42.648;23.332;2022-08-21T08:12:57;94002.34;;;20.70;77.15
65832;BME280;52593;42.648;23.332;2022-08-21T08:15:25;94004.13;;;20.59;75.45
65832;BME280;52593;42.648;23.332;2022-08-21T08:17:51;93985.59;;;20.51;75.78
65832;BME280;52593;42.648;23.332;2022-08-21T08:20:17;93998.50;;;20.66;76.41
65832;BME280;52593;42.648;23.332;2022-08-21T08:22:44;93994.81;;;20.82;75.50
65832;BME280;52593;42.648;23.332;2022-08-21T08:25:12;93998.41;;;20.88;75.43
65832;BME280;52593;42.648;23.332;2022-08-21T08:27:39;93994.13;;;21.02;73.56
65832;BME280;52593;42.648;23.332;2022-08-21T08:30:07;93996.44;;;21.21;74.51
65832;BME280;52593;42.648;23.332;2022-08-21T08:32:33;93998.13;;;21.37;72.28
65832;BME280;52593;42.648;23.332;2022-08-21T08:34:58;94006.09;;;21.44;72.77
65832;BME280;52593;42.648;23.332;2022-08-21T08:37:24;94002.00;;;21.47;73.60
65832;BME280;52593;42.648;23.332;2022-08-21T08:39:50;93999.63;;;21.55;72.84
65832;BME280;52593;42.648;23.332;2022-08-21T08:42:20;94007.94;;;21.38;72.86
65832;BME280;52593;42.648;23.332;2022-08-21T08:44:56;94000.94;;;21.05;73.16
65832;BME280;52593;42.648;23.332;2022-08-21T08:47:24;94006.91;;;21.02;73.47
65832;BME280;52593;42.648;23.332;2022-08-21T08:50:06;94005.84;;;21.03;74.54
65832;BME280;52593;42.648;23.332;2022-08-21T08:52:39;94006.63;;;20.98;73.84
65832;BME280;52593;42.648;23.332;2022-08-21T08:55:18;93997.69;;;21.03;74.71
65832;BME280;52593;42.648;23.332;2022-08-21T08:57:47;93995.81;;;21.09;74.12
65832;BME280;52593;42.648;23.332;2022-08-21T09:00:16;93993.41;;;21.17;74.67
65832;BME280;52593;42.648;23.332;2022-08-21T09:02:44;93986.19;;;21.38;74.26
65832;BME280;52593;42.648;23.332;2022-08-21T09:05:21;93976.41;;;21.43;71.31
65832;BME280;52593;42.648;23.332;2022-08-21T09:27:17;93964.44;;;22.74;65.92
65832;BME280;52593;42.648;23.332;2022-08-21T09:29:46;93953.00;;;22.82;65.86
65832;BME280;52593;42.648;23.332;2022-08-21T09:32:28;93961.97;;;22.93;64.55
65832;BME280;52593;42.648;23.332;2022-08-21T09:35:06;93950.78;;;23.05;64.59
65832;BME280;52593;42.648;23.332;2022-08-21T09:37:35;93957.03;;;23.05;63.26
65832;BME280;52593;42.648;23.332;2022-08-21T09:40:02;93958.16;;;22.89;63.27
65832;BME280;52593;42.648;23.332;2022-08-21T09:42:40;93947.53;;;22.72;63.78
65832;BME280;52593;42.648;23.332;2022-08-21T09:45:13;93956.25;;;22.74;65.60
65832;BME280;52593;42.648;23.332;2022-08-21T09:47:40;93953.53;;;22.84;63.56
65832;BME280;52593;42.648;23.332;2022-08-21T09:50:22;93951.09;;;22.77;64.40
65832;BME280;52593;42.648;23.332;2022-08-21T09:52:52;93946.44;;;22.88;64.28
65832;BME280;52593;42.648;23.332;2022-08-21T09:55:39;93946.16;;;22.90;65.35
65832;BME280;52593;42.648;23.332;2022-08-21T09:58:48;93952.16;;;22.92;66.32
65832;BME280;52593;42.648;23.332;2022-08-21T10:01:41;93943.97;;;22.87;65.87
65832;BME280;52593;42.648;23.332;2022-08-21T10:04:08;93949.97;;;22.78;66.07
65832;BME280;52593;42.648;23.332;2022-08-21T10:06:34;93950.53;;;22.86;66.56
65832;BME280;52593;42.648;23.332;2022-08-21T10:09:23;93947.50;;;22.97;65.98
65832;BME280;52593;42.648;23.332;2022-08-21T10:12:37;93941.50;;;23.16;63.59
65832;BME280;52593;42.648;23.332;2022-08-21T10:17:25;93938.38;;;23.48;65.36
65832;BME280;52593;42.648;23.332;2022-08-21T10:19:56;93939.13;;;23.69;64.90
65832;BME280;52593;42.648;23.332;2022-08-21T10:30:17;93927.59;;;24.22;60.74
65832;BME280;52593;42.648;23.332;2022-08-21T10:35:33;93919.91;;;24.30;62.20
65832;BME280;52593;42.648;23.332;2022-08-21T10:40:51;93906.94;;;24.80;58.51
65832;BME280;52593;42.648;23.332;2022-08-21T10:57:18;93893.84;;;25.31;55.88
65832;BME280;52593;42.648;23.332;2022-08-21T10:59:52;93893.69;;;25.17;57.16
65832;BME280;52593;42.648;23.332;2022-08-21T11:08:17;93879.25;;;25.59;54.95
65832;BME280;52593;42.648;23.332;2022-08-21T11:10:51;93878.44;;;25.78;54.20
65832;BME280;52593;42.648;23.332;2022-08-21T11:13:24;93875.84;;;25.68;55.00
65832;BME280;52593;42.648;23.332;2022-08-21T11:16:23;93870.91;;;25.70;54.68
65832;BME280;52593;42.648;23.332;2022-08-21T11:18:57;93866.44;;;25.74;52.84
65832;BME280;52593;42.648;23.332;2022-08-21T11:21:32;93865.78;;;25.82;52.68
65832;BME280;52593;42.648;23.332;2022-08-21T11:27:20;93874.34;;;25.75;53.92
65832;BME280;52593;42.648;23.332;2022-08-21T11:29:54;93868.50;;;25.44;54.50
65832;BME280;52593;42.648;23.332;2022-08-21T11:35:01;93865.25;;;25.61;54.60
65832;BME280;52593;42.648;23.332;2022-08-21T11:40:24;93858.84;;;25.46;54.04
65832;BME280;52593;42.648;23.332;2022-08-21T11:48:37;93867.41;;;25.16;55.14
65832;BME280;52593;42.648;23.332;2022-08-21T11:51:11;93866.09;;;24.89;54.48
65832;BME280;52593;42.648;23.332;2022-08-21T11:53:51;93867.22;;;24.59;56.56
65832;BME280;52593;42.648;23.332;2022-08-21T11:56:28;93859.53;;;24.55;56.81
65832;BME280;52593;42.648;23.332;2022-08-21T11:59:16;93863.59;;;24.63;56.73
65832;BME280;52593;42.648;23.332;2022-08-21T12:01:46;93861.22;;;24.51;57.33
65832;BME280;52593;42.648;23.332;2022-08-21T12:04:22;93855.28;;;24.44;57.81
65832;BME280;52593;42.648;23.332;2022-08-21T12:06:50;93847.31;;;24.48;58.24
65832;BME280;52593;42.648;23.332;2022-08-21T12:14:49;93838.59;;;24.46;58.00
65832;BME280;52593;42.648;23.332;2022-08-21T12:17:21;93842.13;;;24.46;58.54
65832;BME280;52593;42.648;23.332;2022-08-21T12:20:01;93844.44;;;24.34;58.83
65832;BME280;52593;42.648;23.332;2022-08-21T12:22:38;93852.56;;;24.44;59.12
65832;BME280;52593;42.648;23.332;2022-08-21T12:25:10;93852.25;;;24.46;58.42
65832;BME280;52593;42.648;23.332;2022-08-21T12:27:52;93855.38;;;24.29;58.89
65832;BME280;52593;42.648;23.332;2022-08-21T12:33:23;93862.34;;;24.16;58.50
65832;BME280;52593;42.648;23.332;2022-08-21T12:35:52;93854.13;;;24.16;59.38
65832;BME280;52593;42.648;23.332;2022-08-21T12:38:28;93854.66;;;24.18;58.88
65832;BME280;52593;42.648;23.332;2022-08-21T12:41:01;93855.50;;;24.18;59.15
65832;BME280;52593;42.648;23.332;2022-08-21T12:43:37;93848.91;;;24.19;59.19
65832;BME280;52593;42.648;23.332;2022-08-21T12:46:05;93842.28;;;24.26;58.08
65832;BME280;52593;42.648;23.332;2022-08-21T12:48:41;93845.00;;;24.31;58.89
65832;BME280;52593;42.648;23.332;2022-08-21T12:51:13;93841.41;;;24.35;59.39
65832;BME280;52593;42.648;23.332;2022-08-21T12:53:42;93856.59;;;24.17;60.51
65832;BME280;52593;42.648;23.332;2022-08-21T12:56:13;93849.97;;;24.24;60.96
65832;BME280;52593;42.648;23.332;2022-08-21T12:58:47;93843.44;;;24.19;60.67
65832;BME280;52593;42.648;23.332;2022-08-21T13:01:22;93841.97;;;24.03;60.98
65832;BME280;52593;42.648;23.332;2022-08-21T13:03:54;93838.50;;;23.92;61.92
65832;BME280;52593;42.648;23.332;2022-08-21T13:06:22;93834.16;;;23.81;62.17
65832;BME280;52593;42.648;23.332;2022-08-21T13:08:57;93830.03;;;23.89;61.62
65832;BME280;52593;42.648;23.332;2022-08-21T13:11:24;93840.19;;;23.78;62.07
65832;BME280;52593;42.648;23.332;2022-08-21T13:13:51;93841.03;;;23.73;62.53
65832;BME280;52593;42.648;23.332;2022-08-21T13:16:26;93846.75;;;23.77;63.48
65832;BME280;52593;42.648;23.332;2022-08-21T13:18:59;93831.47;;;23.76;64.15
65832;BME280;52593;42.648;23.332;2022-08-21T13:21:34;93823.84;;;23.73;63.94
65832;BME280;52593;42.648;23.332;2022-08-21T13:24:27;93824.63;;;23.73;63.34
65832;BME280;52593;42.648;23.332;2022-08-21T13:26:54;93823.25;;;23.76;62.99
65832;BME280;52593;42.648;23.332;2022-08-21T13:29:22;93813.34;;;23.90;63.37
65832;BME280;52593;42.648;23.332;2022-08-21T13:31:51;93798.91;;;24.19;62.53
65832;BME280;52593;42.648;23.332;2022-08-21T13:34:20;93794.34;;;24.38;62.10
65832;BME280;52593;42.648;23.332;2022-08-21T13:36:46;93792.25;;;24.60;61.10
65832;BME280;52593;42.648;23.332;2022-08-21T13:39:15;93805.78;;;24.75;61.03
65832;BME280;52593;42.648;23.332;2022-08-21T13:41:44;93805.00;;;24.93;60.89
65832;BME280;52593;42.648;23.332;2022-08-21T13:46:41;93809.72;;;24.88;60.07
65832;BME280;52593;42.648;23.332;2022-08-21T13:49:08;93814.38;;;24.63;60.23
65832;BME280;52593;42.648;23.332;2022-08-21T13:51:35;93808.22;;;24.77;60.08
65832;BME280;52593;42.648;23.332;2022-08-21T13:54:02;93811.75;;;24.77;61.14
65832;BME280;52593;42.648;23.332;2022-08-21T13:56:44;93810.06;;;24.81;60.98
65832;BME280;52593;42.648;23.332;2022-08-21T13:59:09;93807.84;;;24.83;60.97
65832;BME280;52593;42.648;23.332;2022-08-21T14:01:49;93797.38;;;24.66;61.46
65832;BME280;52593;42.648;23.332;2022-08-21T14:04:20;93801.59;;;24.53;61.74
65832;BME280;52593;42.648;23.332;2022-08-21T14:06:47;93804.72;;;24.42;62.78
65832;BME280;52593;42.648;23.332;2022-08-21T14:11:54;93802.88;;;24.32;62.74
65832;BME280;52593;42.648;23.332;2022-08-21T14:14:24;93794.31;;;24.14;63.70
65832;BME280;52593;42.648;23.332;2022-08-21T14:17:05;93797.16;;;23.99;63.90
65832;BME280;52593;42.648;23.332;2022-08-21T14:19:46;93803.72;;;23.98;64.51